Latest Weather Observations for Scotts Peak

IDT60801

Issued at 10:51 pm EST Thursday 2 July 2020 (issued every 10 minutes, with the page automatically refreshed every 10 minutes)

About weather observations | Map of weather stations | Latest weather observations for TAS | Other Formats
Station Details ID: 097083 Name: SCOTTS PEAK DAM Lat: -43.04 Lon: 146.27 Height: 408.0 m
Data from the previous 72 hours. | See also: Recent months at Scotts Peak
Date/Time
EST
Temp
°C
App
Temp
°C
Dew
Point
°C
Rel
Hum
%
Delta-T
°C
Wind Press
QNH
hPa
Press
MSL
hPa
Rain since
9am
mm
Dir  Spd
km/h
Gust
km/h
Spd
kts
Gust
kts
02/10:30pm 4.9 -4.4 4.9 100 0.0 NW 43 61 23 33 - - 7.4
02/10:15pm 5.0 -4.3 5.0 100 0.0 NW 43 61 23 33 - - 7.2
02/10:00pm 5.2 -2.9 5.2 100 0.0 NW 37 44 20 24 - - 6.8
02/09:39pm 5.4 -4.0 5.4 100 0.0 NW 44 69 24 37 - - 6.6
02/09:30pm 5.4 -3.0 5.4 100 0.0 NW 39 48 21 26 - - 6.4
02/09:00pm 5.9 -3.2 5.9 100 0.0 NW 43 54 23 29 - - 5.6
02/08:30pm 6.0 -1.9 6.0 100 0.0 NW 37 46 20 25 - - 5.2
02/08:05pm 6.1 -2.6 6.1 100 0.0 NW 41 63 22 34 - - 5.0
02/08:00pm 6.1 -3.0 6.1 100 0.0 NW 43 59 23 32 - - 4.8
02/07:30pm 6.0 -3.7 6.0 100 0.0 WNW 46 65 25 35 - - 4.4
02/07:29pm 6.0 -3.3 6.0 100 0.0 NW 44 65 24 35 - - 4.4
02/07:23pm 5.9 -3.8 5.9 100 0.0 NW 46 65 25 35 - - 4.4
02/07:00pm 5.9 -6.2 5.9 100 0.0 NW 59 82 32 44 - - 4.4
02/06:30pm 6.3 -5.4 6.3 100 0.0 NW 57 76 31 41 - - 3.8
02/06:14pm 6.5 -4.6 6.5 100 0.0 WNW 54 72 29 39 - - 3.4
02/06:00pm 6.5 -4.6 6.5 100 0.0 NW 54 67 29 36 - - 3.2
02/05:43pm 6.8 -3.4 6.8 100 0.0 WNW 50 67 27 36 - - 3.2
02/05:39pm 6.4 -4.7 6.4 100 0.0 NW 54 74 29 40 - - 3.2
02/05:30pm 6.4 -6.0 6.4 100 0.0 NW 61 85 33 46 - - 3.2
02/05:27pm 6.6 -4.4 6.6 100 0.0 NW 54 82 29 44 - - 3.2
02/05:24pm 6.4 -3.5 6.4 100 0.0 NW 48 69 26 37 - - 3.2
02/05:00pm 6.4 -3.9 6.4 100 0.0 NW 50 67 27 36 - - 3.0
02/04:34pm 6.6 -4.8 6.6 100 0.0 NW 56 74 30 40 - - 2.4
02/04:30pm 6.5 -5.1 6.5 100 0.0 NW 57 74 31 40 - - 2.2
02/04:03pm 6.7 -4.7 6.7 100 0.0 NW 56 78 30 42 - - 2.0
02/04:00pm 6.7 -4.7 6.7 100 0.0 NW 56 72 30 39 - - 2.0
02/03:34pm 6.6 -2.9 6.6 100 0.0 NW 46 65 25 35 - - 1.8
02/03:30pm 6.6 -2.5 6.6 100 0.0 NW 44 65 24 35 - - 1.8
02/03:26pm 6.6 -1.2 6.6 100 0.0 NNW 37 65 20 35 - - 1.8
02/03:17pm 6.6 -0.8 6.6 100 0.0 NW 35 54 19 29 - - 1.6
02/03:00pm 6.7 -1.9 6.7 100 0.0 NW 41 56 22 30 - - 1.6
02/02:30pm 7.0 -1.1 7.0 100 0.0 NNW 39 50 21 27 - - 1.0
02/02:00pm 7.1 -3.1 7.0 99 0.0 NNW 50 59 27 32 - - 1.0
02/01:30pm 7.8 -0.4 6.7 93 0.5 NNW 39 48 21 26 - - 1.0
02/01:00pm 8.5 1.8 7.4 93 0.5 NW 32 39 17 21 - - 1.0
02/12:30pm 7.3 1.4 7.3 100 0.0 NW 28 46 15 25 - - 1.0
02/12:00pm 6.4 0.6 6.4 100 0.0 NW 26 37 14 20 - - 1.0
02/11:44am 6.2 -1.7 6.2 100 0.0 WNW 37 56 20 30 - - 1.0
02/11:30am 7.0 -1.9 7.0 100 0.0 NW 43 56 23 30 - - 0.8
02/11:00am 6.2 -3.4 6.2 100 0.0 WNW 46 63 25 34 - - 0.8
02/10:57am 6.4 -2.2 6.4 100 0.0 NW 41 61 22 33 - - 0.6
02/10:30am 6.9 -0.5 6.9 100 0.0 WNW 35 44 19 24 - - 0.2
02/10:01am 6.8 -2.7 6.8 100 0.0 WNW 46 69 25 37 - - 0.2
02/10:00am 6.8 -3.1 6.8 100 0.0 NW 48 63 26 34 - - 0.2
02/09:36am 6.7 -2.4 6.7 100 0.0 NW 44 65 24 35 - - 0.2
02/09:30am 6.8 -1.7 6.8 100 0.0 NW 41 52 22 28 - - 0.2
02/09:00am 6.7 -1.1 6.7 100 0.0 NW 37 48 20 26 - - -
02/08:30am 6.4 1.0 6.4 100 0.0 NNW 24 30 13 16 - - -
02/08:00am 6.2 0.4 6.2 100 0.0 N 26 32 14 17 - - -
02/07:30am 6.1 1.6 6.1 100 0.0 N 19 30 10 16 - - -
02/07:00am 6.0 1.3 6.0 100 0.0 N 20 26 11 14 - - -
02/06:30am 6.1 0.6 6.1 100 0.0 N 24 30 13 16 - - -
02/06:00am 5.8 1.0 5.8 100 0.0 NNW 20 30 11 16 - - -
02/05:53am 5.8 -0.5 5.8 100 0.0 NW 28 41 15 22 - - -
02/05:40am 6.0 -2.3 6.0 100 0.0 WNW 39 57 21 31 - - -
02/05:30am 6.2 -2.5 6.2 100 0.0 WNW 41 56 22 30 - - -
02/05:04am 7.2 0.8 7.1 99 0.0 WNW 30 48 16 26 - - -
02/05:00am 7.4 1.9 7.4 100 0.0 WNW 26 41 14 22 - - -
02/04:30am 7.8 1.3 6.3 90 0.7 N 30 43 16 23 - - -
02/04:00am 8.8 1.6 4.8 76 1.8 NNE 32 43 17 23 - - -
02/03:30am 8.8 1.4 5.0 77 1.7 N 33 46 18 25 - - -
02/03:00am 9.1 2.0 5.5 78 1.7 N 32 44 17 24 - - -
02/02:30am 9.2 3.3 5.8 79 1.6 N 26 39 14 21 - - -
02/02:00am 9.3 2.1 5.9 79 1.6 N 33 48 18 26 - - -
02/01:30am 8.9 1.4 6.2 83 1.3 N 35 57 19 31 - - 0.0
02/01:26am 9.0 2.0 5.9 81 1.5 N 32 50 17 27 - - 0.0
02/01:00am 9.5 3.8 4.9 73 2.1 N 24 32 13 17 - - 0.0
02/12:30am 9.1 2.6 4.5 73 2.1 N 28 41 15 22 - - 0.0
02/12:10am 9.3 2.0 4.7 73 2.1 N 32 54 17 29 - - 0.0
02/12:00am 9.5 0.9 4.7 72 2.2 N 39 50 21 27 - - 0.0
 
Date/Time
EST
Temp
°C
App
Temp
°C
Dew
Point
°C
Rel
Hum
%
Delta-T
°C
Wind Press
QNH
hPa
Press
MSL
hPa
Rain since
9am
mm
Dir  Spd
km/h
Gust
km/h
Spd
kts
Gust
kts
01/11:38pm 9.1 1.2 4.5 73 2.1 N 35 54 19 29 - - 0.0
01/11:30pm 9.1 1.2 4.5 73 2.1 N 35 48 19 26 - - 0.0
01/11:00pm 8.4 2.3 4.6 77 1.7 N 26 35 14 19 - - 0.0
01/10:35pm 8.7 2.2 4.5 75 1.9 N 28 46 15 25 - - 0.0
01/10:30pm 8.5 1.5 4.3 75 1.9 N 30 44 16 24 - - 0.0
01/10:00pm 8.9 1.0 4.3 73 2.1 N 35 50 19 27 - - 0.0
01/09:30pm 8.7 3.0 4.7 76 1.8 N 24 39 13 21 - - 0.0
01/09:00pm 8.5 3.1 4.3 75 1.9 NNE 22 39 12 21 - - 0.0
01/08:30pm 8.5 3.6 4.1 74 2.0 NNE 19 28 10 15 - - 0.0
01/08:00pm 8.4 3.3 4.0 74 2.0 NNE 20 32 11 17 - - 0.0
01/07:30pm 8.5 2.6 4.1 74 2.0 NNE 24 35 13 19 - - 0.0
01/07:00pm 8.5 3.7 4.5 76 1.8 NNE 19 28 10 15 - - 0.0
01/06:30pm 8.5 2.7 4.5 76 1.8 NNE 24 32 13 17 - - 0.0
01/06:00pm 8.6 2.8 4.6 76 1.8 NNE 24 33 13 18 - - 0.0
01/05:30pm 8.9 2.4 4.9 76 1.8 NNE 28 33 15 18 - - 0.0
01/05:00pm 9.0 3.0 5.2 77 1.7 N 26 33 14 18 - - 0.0
01/04:30pm 9.5 3.5 5.3 75 1.9 NNE 26 37 14 20 - - 0.0
01/04:00pm 10.1 4.6 5.7 74 2.1 N 24 32 13 17 - - 0.0
01/03:30pm 11.3 6.8 6.0 70 2.5 NNE 19 28 10 15 - - 0.0
01/03:00pm 12.1 8.5 6.8 70 2.6 NNE 15 26 8 14 - - 0.0
01/02:30pm 12.6 9.0 6.9 68 2.8 NNE 15 22 8 12 - - 0.0
01/02:00pm 12.5 9.4 7.2 70 2.6 NNE 13 20 7 11 - - 0.0
01/01:30pm 11.8 9.4 7.1 73 2.3 NNE 9 19 5 10 - - 0.0
01/01:00pm 10.1 8.1 6.1 76 1.9 NNE 6 11 3 6 - - 0.0
01/12:30pm 8.7 6.5 5.1 78 1.6 ESE 6 7 3 4 - - 0.0
01/12:00pm 7.4 4.9 5.0 85 1.1 ESE 7 9 4 5 - - 0.0
01/11:30am 7.6 5.4 5.4 86 1.0 SE 6 11 3 6 - - 0.0
01/11:00am 6.7 4.2 5.0 89 0.8 SE 7 9 4 5 - - 0.0
01/10:30am 5.7 2.4 4.3 91 0.6 ESE 11 15 6 8 - - 0.0
01/10:00am 5.1 2.3 5.1 100 0.0 SE 9 13 5 7 - - 0.0
01/09:30am 4.1 0.7 4.1 100 0.0 SE 11 15 6 8 - - 0.0
01/09:00am 3.9 0.1 3.9 100 0.0 SE 13 15 7 8 - - 0.0
01/08:30am 4.3 1.3 4.3 100 0.0 E 9 11 5 6 - - 0.0
01/08:00am 3.7 0.2 3.7 100 0.0 E 11 13 6 7 - - 0.0
01/07:30am 4.1 1.0 3.8 98 0.1 E 9 11 5 6 - - 0.0
01/07:00am 3.8 1.1 3.7 99 0.0 ESE 7 9 4 5 - - 0.0
01/06:30am 4.1 1.4 3.5 96 0.3 E 7 11 4 6 - - 0.0
01/06:00am 5.1 1.7 4.2 94 0.4 NE 11 15 6 8 - - 0.0
01/05:30am 5.2 1.8 4.2 93 0.4 NNE 11 15 6 8 - - 0.0
01/05:00am 5.3 2.6 3.6 89 0.7 NNE 7 11 4 6 - - 0.0
01/04:30am 5.0 1.5 3.3 89 0.7 NNE 11 13 6 7 - - 0.0
01/04:00am 5.9 4.1 3.4 84 1.1 SE 2 11 1 6 - - 0.0
01/03:30am 6.1 3.5 3.3 82 1.2 WSW 6 9 3 5 - - 0.0
01/03:00am 5.7 3.1 3.2 84 1.1 SE 6 15 3 8 - - 0.0
01/02:30am 5.9 0.7 3.6 85 1.0 NNE 20 22 11 12 - - 0.0
01/02:00am 5.9 1.4 4.1 88 0.8 NNE 17 22 9 12 - - 0.0
01/01:30am 5.8 1.3 4.4 91 0.6 NNE 17 20 9 11 - - 0.0
01/01:00am 5.6 1.9 4.4 92 0.5 NNE 13 15 7 8 - - 0.0
01/12:30am 6.0 3.1 4.5 90 0.7 ENE 9 15 5 8 - - 0.0
01/12:00am 6.2 3.7 4.5 89 0.8 ENE 7 9 4 5 - - 0.0
 
Date/Time
EST
Temp
°C
App
Temp
°C
Dew
Point
°C
Rel
Hum
%
Delta-T
°C
Wind Press
QNH
hPa
Press
MSL
hPa
Rain since
9am
mm
Dir  Spd
km/h
Gust
km/h
Spd
kts
Gust
kts
30/11:30pm 6.0 3.2 5.3 95 0.3 ENE 9 11 5 6 - - 0.0
30/11:00pm 5.6 2.7 4.9 95 0.3 NNE 9 17 5 9 - - 0.0
30/10:30pm 5.6 2.9 5.5 99 0.0 N 9 13 5 7 - - 0.0
30/10:00pm 5.8 2.3 5.5 98 0.1 N 13 19 7 10 - - 0.0
30/09:30pm 5.5 3.7 5.2 98 0.1 S 4 7 2 4 - - 0.0
30/09:00pm 6.0 3.2 5.0 93 0.4 N 9 13 5 7 - - 0.0
30/08:30pm 6.4 3.9 4.9 90 0.7 NW 7 9 4 5 - - 0.0
30/08:00pm 5.8 2.5 4.4 91 0.6 N 11 15 6 8 - - 0.0
30/07:30pm 7.0 4.2 5.0 87 0.9 NNE 9 17 5 9 - - 0.0
30/07:00pm 6.7 3.5 5.0 89 0.8 NNE 11 17 6 9 - - 0.0
30/06:30pm 6.8 3.9 4.8 87 0.9 NE 9 15 5 8 - - 0.0
30/06:00pm 6.2 3.9 5.6 96 0.3 E 7 11 4 6 - - 0.0
30/05:30pm 6.3 3.5 5.1 92 0.5 ENE 9 17 5 9 - - 0.0
30/05:00pm 6.9 4.6 5.7 92 0.5 SE 7 13 4 7 - - 0.0
30/04:30pm 6.0 3.0 6.0 100 0.0 SSE 11 17 6 9 - - 0.0
30/04:00pm 6.4 4.2 6.4 100 0.0 SE 7 9 4 5 - - 0.0
30/03:30pm 6.7 4.2 6.7 100 0.0 ESE 9 13 5 7 - - 0.0
30/03:00pm 6.7 4.2 6.7 100 0.0 ESE 9 13 5 7 - - 0.0
30/02:30pm 7.5 5.1 6.9 96 0.3 ESE 9 11 5 6 - - 0.0
30/02:00pm 8.0 5.6 6.9 93 0.5 ESE 9 13 5 7 - - 0.0
30/01:30pm 8.4 5.8 7.8 96 0.3 NNE 11 17 6 9 - - 0.0
30/01:00pm 7.6 5.3 7.6 100 0.0 N 9 19 5 10 - - 0.0
30/12:30pm 7.7 6.0 7.7 100 0.0 NNW 6 9 3 5 - - 0.0
30/12:00pm 7.5 5.6 7.5 100 0.0 NW 7 11 4 6 - - 0.0
30/11:30am 7.4 3.6 7.4 100 0.0 N 17 20 9 11 - - 0.0
30/11:00am 7.0 3.1 7.0 100 0.0 N 17 26 9 14 - - 0.0
30/10:30am 4.7 2.8 4.7 100 0.0 N 4 11 2 6 - - 0.0
30/10:00am 3.2 1.0 3.2 100 0.0 NNW 4 9 2 5 - - 0.0
30/09:30am 3.6 1.1 3.6 100 0.0 WNW 6 13 3 7 - - 0.0
30/09:00am 3.0 0.2 3.0 100 0.0 NNW 7 11 4 6 - - 3.2
30/08:30am 3.1 1.2 3.1 100 0.0 NNW 2 7 1 4 - - 3.2
30/08:00am 2.5 -1.2 2.5 100 0.0 N 11 13 6 7 - - 3.2
30/07:30am 2.5 -0.8 2.5 100 0.0 ESE 9 11 5 6 - - 3.0
30/07:00am 2.8 -0.1 2.8 100 0.0 SE 7 11 4 6 - - 3.0
30/06:30am 3.1 -0.1 3.1 100 0.0 N 9 13 5 7 - - 3.0
30/06:00am 3.0 0.2 3.0 100 0.0 SE 7 11 4 6 - - 3.0
30/05:30am 3.2 1.7 3.2 100 0.0 CALM 0 7 0 4 - - 3.0
30/05:00am 3.6 2.2 3.6 100 0.0 CALM 0 0 0 0 - - 3.0
30/04:30am 3.5 2.1 3.5 100 0.0 CALM 0 0 0 0 - - 3.0
30/04:00am 3.6 1.4 3.6 100 0.0 SE 4 9 2 5 - - 3.0
30/03:30am 3.7 2.3 3.7 100 0.0 CALM 0 2 0 1 - - 2.8
30/03:00am 4.1 2.8 4.1 100 0.0 CALM 0 0 0 0 - - 2.8
30/02:30am 3.9 2.6 3.9 100 0.0 CALM 0 0 0 0 - - 2.8
30/02:00am 4.0 2.3 4.0 100 0.0 SSE 2 6 1 3 - - 2.8
30/01:30am 4.6 1.7 4.6 100 0.0 SSE 9 11 5 6 - - 2.8
30/01:00am 4.6 2.6 4.6 100 0.0 NE 4 7 2 4 - - 2.8
30/12:30am 4.8 3.6 4.8 100 0.0 CALM 0 4 0 2 - - 2.8
30/12:00am 5.3 3.1 5.3 100 0.0 ESE 6 9 3 5 - - 2.8
 
Date/Time
EST
Temp
°C
App
Temp
°C
Dew
Point
°C
Rel
Hum
%
Delta-T
°C
Wind Press
QNH
hPa
Press
MSL
hPa
Rain since
9am
mm
Dir  Spd
km/h
Gust
km/h
Spd
kts
Gust
kts
29/11:30pm 6.3 5.1 6.3 100 0.0 E 2 7 1 4 - - 2.8
29/11:00pm 5.6 3.3 5.6 100 0.0 E 7 9 4 5 - - 2.8

Other formats

Comma delimited format used in spreadsheet applications
http://www.bom.gov.au/fwo/IDT60801/IDT60801.95958.axf

JavaScript Object Notation format (JSON) in row-major order
http://www.bom.gov.au/fwo/IDT60801/IDT60801.95958.json

Data quality

Most of these data are generated automatically and are frequently updated. Quality checks on data are not normally performed. It is possible for incorrect values to appear. Refer to information at About Latest Weather Observations and please check the disclaimer before using these data.